sensor_id;sensor_type;location;lat;lon;timestamp;P1;durP1;ratioP1;P2;durP2;ratioP2
8604;SDS011;4340;52.516;13.468;2023-01-30T00:01:38;15.37;;;9.97;;
8604;SDS011;4340;52.516;13.468;2023-01-30T00:04:07;15.90;;;9.70;;
8604;SDS011;4340;52.516;13.468;2023-01-30T00:06:36;16.77;;;10.27;;
8604;SDS011;4340;52.516;13.468;2023-01-30T00:09:03;13.40;;;9.40;;
8604;SDS011;4340;52.516;13.468;2023-01-30T00:11:29;16.10;;;10.20;;
8604;SDS011;4340;52.516;13.468;2023-01-30T00:13:57;16.20;;;10.20;;
8604;SDS011;4340;52.516;13.468;2023-01-30T00:16:24;14.77;;;9.70;;
8604;SDS011;4340;52.516;13.468;2023-01-30T00:18:51;17.00;;;9.90;;
8604;SDS011;4340;52.516;13.468;2023-01-30T00:21:19;16.73;;;10.20;;
8604;SDS011;4340;52.516;13.468;2023-01-30T00:23:45;15.90;;;9.67;;
8604;SDS011;4340;52.516;13.468;2023-01-30T00:26:12;18.83;;;11.53;;
8604;SDS011;4340;52.516;13.468;2023-01-30T00:28:39;14.73;;;10.50;;
8604;SDS011;4340;52.516;13.468;2023-01-30T00:31:06;14.70;;;10.17;;
8604;SDS011;4340;52.516;13.468;2023-01-30T00:33:34;15.00;;;10.27;;
8604;SDS011;4340;52.516;13.468;2023-01-30T00:36:01;18.40;;;10.83;;
8604;SDS011;4340;52.516;13.468;2023-01-30T00:38:30;16.90;;;10.67;;
8604;SDS011;4340;52.516;13.468;2023-01-30T00:40:56;16.87;;;10.80;;
8604;SDS011;4340;52.516;13.468;2023-01-30T00:43:23;20.47;;;10.73;;
8604;SDS011;4340;52.516;13.468;2023-01-30T00:46:09;17.27;;;11.20;;
8604;SDS011;4340;52.516;13.468;2023-01-30T00:48:57;16.47;;;11.00;;
8604;SDS011;4340;52.516;13.468;2023-01-30T00:51:24;19.10;;;11.60;;
8604;SDS011;4340;52.516;13.468;2023-01-30T00:53:52;19.70;;;11.33;;
8604;SDS011;4340;52.516;13.468;2023-01-30T00:56:18;17.20;;;10.70;;
8604;SDS011;4340;52.516;13.468;2023-01-30T00:58:45;19.00;;;11.57;;
8604;SDS011;4340;52.516;13.468;2023-01-30T01:01:12;20.03;;;12.23;;
8604;SDS011;4340;52.516;13.468;2023-01-30T01:03:38;20.23;;;11.87;;
8604;SDS011;4340;52.516;13.468;2023-01-30T01:06:05;18.73;;;11.47;;
8604;SDS011;4340;52.516;13.468;2023-01-30T01:08:31;19.17;;;11.93;;
8604;SDS011;4340;52.516;13.468;2023-01-30T01:10:59;18.20;;;12.03;;
8604;SDS011;4340;52.516;13.468;2023-01-30T01:13:26;17.90;;;11.77;;
8604;SDS011;4340;52.516;13.468;2023-01-30T01:15:52;17.37;;;10.80;;
8604;SDS011;4340;52.516;13.468;2023-01-30T01:18:19;20.30;;;12.07;;
8604;SDS011;4340;52.516;13.468;2023-01-30T01:20:46;23.20;;;13.67;;
8604;SDS011;4340;52.516;13.468;2023-01-30T01:23:12;20.70;;;12.67;;
8604;SDS011;4340;52.516;13.468;2023-01-30T01:25:39;22.03;;;13.20;;
8604;SDS011;4340;52.516;13.468;2023-01-30T01:28:07;23.13;;;12.30;;
8604;SDS011;4340;52.516;13.468;2023-01-30T01:30:34;21.20;;;12.37;;
8604;SDS011;4340;52.516;13.468;2023-01-30T01:33:00;20.97;;;12.70;;
8604;SDS011;4340;52.516;13.468;2023-01-30T01:35:27;23.63;;;13.57;;
8604;SDS011;4340;52.516;13.468;2023-01-30T01:37:53;21.13;;;12.27;;
8604;SDS011;4340;52.516;13.468;2023-01-30T01:40:21;20.73;;;12.07;;
8604;SDS011;4340;52.516;13.468;2023-01-30T01:43:14;19.77;;;12.57;;
8604;SDS011;4340;52.516;13.468;2023-01-30T01:45:42;23.70;;;12.73;;
8604;SDS011;4340;52.516;13.468;2023-01-30T01:48:12;21.00;;;12.23;;
8604;SDS011;4340;52.516;13.468;2023-01-30T01:50:45;19.17;;;12.20;;
8604;SDS011;4340;52.516;13.468;2023-01-30T01:53:15;20.00;;;13.10;;
8604;SDS011;4340;52.516;13.468;2023-01-30T01:55:44;20.23;;;11.87;;
8604;SDS011;4340;52.516;13.468;2023-01-30T01:58:15;22.37;;;13.20;;
8604;SDS011;4340;52.516;13.468;2023-01-30T02:00:45;21.80;;;11.30;;
8604;SDS011;4340;52.516;13.468;2023-01-30T02:03:14;18.40;;;12.27;;
8604;SDS011;4340;52.516;13.468;2023-01-30T02:05:45;21.77;;;13.53;;
8604;SDS011;4340;52.516;13.468;2023-01-30T02:08:16;21.40;;;12.50;;
8604;SDS011;4340;52.516;13.468;2023-01-30T02:10:45;22.20;;;12.80;;
8604;SDS011;4340;52.516;13.468;2023-01-30T02:13:19;21.80;;;13.20;;
8604;SDS011;4340;52.516;13.468;2023-01-30T02:15:45;22.17;;;13.47;;
8604;SDS011;4340;52.516;13.468;2023-01-30T02:18:12;22.50;;;13.90;;
8604;SDS011;4340;52.516;13.468;2023-01-30T02:20:44;23.57;;;13.97;;
8604;SDS011;4340;52.516;13.468;2023-01-30T02:23:27;24.40;;;13.33;;
8604;SDS011;4340;52.516;13.468;2023-01-30T02:29:17;25.43;;;14.17;;
8604;SDS011;4340;52.516;13.468;2023-01-30T02:32:13;26.40;;;14.23;;
8604;SDS011;4340;52.516;13.468;2023-01-30T02:34:49;22.83;;;13.77;;
8604;SDS011;4340;52.516;13.468;2023-01-30T02:37:26;24.97;;;15.13;;
8604;SDS011;4340;52.516;13.468;2023-01-30T02:40:03;24.63;;;14.20;;
8604;SDS011;4340;52.516;13.468;2023-01-30T02:42:41;25.90;;;14.00;;
8604;SDS011;4340;52.516;13.468;2023-01-30T02:45:15;25.17;;;15.00;;
8604;SDS011;4340;52.516;13.468;2023-01-30T02:47:49;22.57;;;13.77;;
8604;SDS011;4340;52.516;13.468;2023-01-30T02:50:23;25.80;;;13.93;;
8604;SDS011;4340;52.516;13.468;2023-01-30T02:52:52;24.73;;;13.90;;
8604;SDS011;4340;52.516;13.468;2023-01-30T02:55:20;27.07;;;15.37;;
8604;SDS011;4340;52.516;13.468;2023-01-30T02:57:48;31.67;;;16.30;;
8604;SDS011;4340;52.516;13.468;2023-01-30T03:00:15;26.93;;;15.33;;
8604;SDS011;4340;52.516;13.468;2023-01-30T03:02:54;28.00;;;16.10;;
8604;SDS011;4340;52.516;13.468;2023-01-30T03:05:36;31.33;;;16.93;;
8604;SDS011;4340;52.516;13.468;2023-01-30T03:08:16;29.27;;;16.17;;
8604;SDS011;4340;52.516;13.468;2023-01-30T03:10:51;30.53;;;16.80;;
8604;SDS011;4340;52.516;13.468;2023-01-30T03:13:25;26.50;;;15.70;;
8604;SDS011;4340;52.516;13.468;2023-01-30T03:15:59;30.47;;;17.20;;
8604;SDS011;4340;52.516;13.468;2023-01-30T03:18:31;30.50;;;17.00;;
8604;SDS011;4340;52.516;13.468;2023-01-30T03:21:04;29.53;;;16.80;;
8604;SDS011;4340;52.516;13.468;2023-01-30T03:23:31;28.53;;;16.23;;
8604;SDS011;4340;52.516;13.468;2023-01-30T03:25:58;28.80;;;17.53;;
8604;SDS011;4340;52.516;13.468;2023-01-30T03:28:25;28.90;;;15.97;;
8604;SDS011;4340;52.516;13.468;2023-01-30T03:30:53;30.50;;;16.37;;
8604;SDS011;4340;52.516;13.468;2023-01-30T03:33:19;29.40;;;16.93;;
8604;SDS011;4340;52.516;13.468;2023-01-30T03:35:47;27.63;;;15.40;;
8604;SDS011;4340;52.516;13.468;2023-01-30T03:38:14;27.40;;;15.90;;
8604;SDS011;4340;52.516;13.468;2023-01-30T03:40:40;27.87;;;15.87;;
8604;SDS011;4340;52.516;13.468;2023-01-30T03:43:07;30.17;;;17.30;;
8604;SDS011;4340;52.516;13.468;2023-01-30T03:45:34;27.70;;;15.47;;
8604;SDS011;4340;52.516;13.468;2023-01-30T03:48:00;29.27;;;16.23;;
8604;SDS011;4340;52.516;13.468;2023-01-30T03:50:27;29.10;;;15.87;;
8604;SDS011;4340;52.516;13.468;2023-01-30T03:52:55;30.73;;;16.87;;
8604;SDS011;4340;52.516;13.468;2023-01-30T03:55:22;30.60;;;17.20;;
8604;SDS011;4340;52.516;13.468;2023-01-30T03:57:48;27.20;;;16.17;;
8604;SDS011;4340;52.516;13.468;2023-01-30T04:00:19;27.97;;;15.30;;
8604;SDS011;4340;52.516;13.468;2023-01-30T04:02:46;26.73;;;15.70;;
8604;SDS011;4340;52.516;13.468;2023-01-30T04:05:12;28.90;;;16.00;;
8604;SDS011;4340;52.516;13.468;2023-01-30T04:07:39;29.90;;;16.50;;
8604;SDS011;4340;52.516;13.468;2023-01-30T04:10:07;31.60;;;17.80;;
8604;SDS011;4340;52.516;13.468;2023-01-30T04:12:35;28.07;;;15.30;;
8604;SDS011;4340;52.516;13.468;2023-01-30T04:15:01;28.10;;;15.83;;
8604;SDS011;4340;52.516;13.468;2023-01-30T04:17:28;25.07;;;15.23;;
8604;SDS011;4340;52.516;13.468;2023-01-30T04:19:54;27.43;;;15.43;;
8604;SDS011;4340;52.516;13.468;2023-01-30T04:22:21;27.77;;;15.93;;
8604;SDS011;4340;52.516;13.468;2023-01-30T04:24:47;23.80;;;14.93;;
8604;SDS011;4340;52.516;13.468;2023-01-30T04:27:15;27.57;;;15.37;;
8604;SDS011;4340;52.516;13.468;2023-01-30T04:29:42;26.17;;;14.53;;
8604;SDS011;4340;52.516;13.468;2023-01-30T04:32:08;30.63;;;16.20;;
8604;SDS011;4340;52.516;13.468;2023-01-30T04:34:35;27.43;;;15.30;;
8604;SDS011;4340;52.516;13.468;2023-01-30T04:37:01;33.73;;;15.30;;
8604;SDS011;4340;52.516;13.468;2023-01-30T04:39:28;25.23;;;14.43;;
8604;SDS011;4340;52.516;13.468;2023-01-30T04:41:54;28.23;;;16.17;;
8604;SDS011;4340;52.516;13.468;2023-01-30T04:44:22;25.60;;;13.87;;
8604;SDS011;4340;52.516;13.468;2023-01-30T04:46:49;24.80;;;15.00;;
8604;SDS011;4340;52.516;13.468;2023-01-30T04:49:15;28.37;;;15.77;;
8604;SDS011;4340;52.516;13.468;2023-01-30T04:51:42;25.13;;;14.33;;
8604;SDS011;4340;52.516;13.468;2023-01-30T04:54:08;26.20;;;15.30;;
8604;SDS011;4340;52.516;13.468;2023-01-30T04:56:35;29.43;;;15.73;;
8604;SDS011;4340;52.516;13.468;2023-01-30T04:59:01;28.37;;;15.30;;
8604;SDS011;4340;52.516;13.468;2023-01-30T05:01:30;28.43;;;15.80;;
8604;SDS011;4340;52.516;13.468;2023-01-30T05:03:58;25.43;;;15.20;;
8604;SDS011;4340;52.516;13.468;2023-01-30T05:06:25;26.23;;;14.50;;
8604;SDS011;4340;52.516;13.468;2023-01-30T05:08:52;28.90;;;15.37;;
8604;SDS011;4340;52.516;13.468;2023-01-30T05:11:20;26.87;;;14.47;;
8604;SDS011;4340;52.516;13.468;2023-01-30T05:13:47;29.20;;;16.50;;
8604;SDS011;4340;52.516;13.468;2023-01-30T05:16:15;29.30;;;17.00;;
8604;SDS011;4340;52.516;13.468;2023-01-30T05:18:44;29.07;;;16.33;;
8604;SDS011;4340;52.516;13.468;2023-01-30T05:21:11;32.07;;;17.73;;
8604;SDS011;4340;52.516;13.468;2023-01-30T05:23:39;37.47;;;16.80;;
8604;SDS011;4340;52.516;13.468;2023-01-30T05:26:06;27.70;;;16.03;;
8604;SDS011;4340;52.516;13.468;2023-01-30T05:28:33;33.07;;;17.83;;
8604;SDS011;4340;52.516;13.468;2023-01-30T05:31:00;29.90;;;15.77;;
8604;SDS011;4340;52.516;13.468;2023-01-30T05:33:27;32.33;;;16.83;;
8604;SDS011;4340;52.516;13.468;2023-01-30T05:35:55;30.70;;;17.10;;
8604;SDS011;4340;52.516;13.468;2023-01-30T05:38:23;28.00;;;15.33;;
8604;SDS011;4340;52.516;13.468;2023-01-30T05:40:56;28.50;;;16.03;;
8604;SDS011;4340;52.516;13.468;2023-01-30T05:43:24;29.90;;;16.77;;
8604;SDS011;4340;52.516;13.468;2023-01-30T05:45:51;29.63;;;15.97;;
8604;SDS011;4340;52.516;13.468;2023-01-30T05:48:18;31.17;;;17.47;;
8604;SDS011;4340;52.516;13.468;2023-01-30T05:50:45;29.50;;;15.57;;
8604;SDS011;4340;52.516;13.468;2023-01-30T05:53:13;31.37;;;16.97;;
8604;SDS011;4340;52.516;13.468;2023-01-30T05:55:39;27.90;;;16.30;;
8604;SDS011;4340;52.516;13.468;2023-01-30T05:58:07;33.10;;;17.00;;
8604;SDS011;4340;52.516;13.468;2023-01-30T06:00:34;32.77;;;17.90;;
8604;SDS011;4340;52.516;13.468;2023-01-30T06:03:01;29.40;;;16.50;;
8604;SDS011;4340;52.516;13.468;2023-01-30T06:05:28;29.53;;;16.00;;
8604;SDS011;4340;52.516;13.468;2023-01-30T06:07:57;31.73;;;16.53;;
8604;SDS011;4340;52.516;13.468;2023-01-30T06:10:25;31.37;;;16.80;;
8604;SDS011;4340;52.516;13.468;2023-01-30T06:12:52;36.83;;;17.80;;
8604;SDS011;4340;52.516;13.468;2023-01-30T06:15:19;32.30;;;17.00;;
8604;SDS011;4340;52.516;13.468;2023-01-30T06:17:45;32.07;;;17.10;;
8604;SDS011;4340;52.516;13.468;2023-01-30T06:20:12;31.53;;;17.77;;
8604;SDS011;4340;52.516;13.468;2023-01-30T06:22:53;35.10;;;17.83;;
8604;SDS011;4340;52.516;13.468;2023-01-30T06:25:20;41.07;;;20.97;;
8604;SDS011;4340;52.516;13.468;2023-01-30T06:27:47;31.07;;;17.33;;
8604;SDS011;4340;52.516;13.468;2023-01-30T06:30:14;37.47;;;19.70;;
8604;SDS011;4340;52.516;13.468;2023-01-30T06:32:41;32.73;;;18.17;;
8604;SDS011;4340;52.516;13.468;2023-01-30T06:35:08;35.77;;;17.97;;
8604;SDS011;4340;52.516;13.468;2023-01-30T06:37:34;33.93;;;17.17;;
8604;SDS011;4340;52.516;13.468;2023-01-30T06:40:01;32.57;;;17.20;;
8604;SDS011;4340;52.516;13.468;2023-01-30T06:42:27;30.20;;;16.40;;
8604;SDS011;4340;52.516;13.468;2023-01-30T06:44:55;29.27;;;16.53;;
8604;SDS011;4340;52.516;13.468;2023-01-30T06:47:22;30.47;;;17.57;;
8604;SDS011;4340;52.516;13.468;2023-01-30T06:49:49;31.10;;;16.87;;
8604;SDS011;4340;52.516;13.468;2023-01-30T06:52:15;30.50;;;15.10;;
8604;SDS011;4340;52.516;13.468;2023-01-30T06:54:42;26.60;;;15.93;;
8604;SDS011;4340;52.516;13.468;2023-01-30T06:57:08;27.37;;;14.97;;
8604;SDS011;4340;52.516;13.468;2023-01-30T06:59:36;29.00;;;15.53;;
8604;SDS011;4340;52.516;13.468;2023-01-30T07:02:04;26.20;;;15.80;;
8604;SDS011;4340;52.516;13.468;2023-01-30T07:04:30;28.03;;;15.27;;
8604;SDS011;4340;52.516;13.468;2023-01-30T07:06:57;28.30;;;15.00;;
8604;SDS011;4340;52.516;13.468;2023-01-30T07:09:24;23.17;;;12.93;;
8604;SDS011;4340;52.516;13.468;2023-01-30T07:11:50;25.93;;;15.00;;
8604;SDS011;4340;52.516;13.468;2023-01-30T07:14:17;28.27;;;14.90;;
8604;SDS011;4340;52.516;13.468;2023-01-30T07:16:43;29.70;;;14.67;;
8604;SDS011;4340;52.516;13.468;2023-01-30T07:19:11;21.77;;;12.97;;
8604;SDS011;4340;52.516;13.468;2023-01-30T07:21:38;22.07;;;13.20;;
8604;SDS011;4340;52.516;13.468;2023-01-30T07:24:04;20.67;;;12.23;;
8604;SDS011;4340;52.516;13.468;2023-01-30T07:26:32;23.17;;;12.43;;
8604;SDS011;4340;52.516;13.468;2023-01-30T07:28:59;24.07;;;13.00;;
8604;SDS011;4340;52.516;13.468;2023-01-30T07:31:25;21.00;;;13.10;;
8604;SDS011;4340;52.516;13.468;2023-01-30T07:33:52;20.90;;;12.40;;
8604;SDS011;4340;52.516;13.468;2023-01-30T07:36:20;21.17;;;12.30;;
8604;SDS011;4340;52.516;13.468;2023-01-30T07:38:46;18.73;;;11.93;;
8604;SDS011;4340;52.516;13.468;2023-01-30T07:41:13;21.60;;;12.77;;
8604;SDS011;4340;52.516;13.468;2023-01-30T07:43:39;22.60;;;13.10;;
8604;SDS011;4340;52.516;13.468;2023-01-30T07:46:06;20.60;;;12.03;;
8604;SDS011;4340;52.516;13.468;2023-01-30T07:48:32;16.67;;;10.53;;
8604;SDS011;4340;52.516;13.468;2023-01-30T07:50:59;17.33;;;11.03;;
8604;SDS011;4340;52.516;13.468;2023-01-30T07:53:27;15.17;;;9.87;;
8604;SDS011;4340;52.516;13.468;2023-01-30T07:55:53;16.67;;;11.47;;
8604;SDS011;4340;52.516;13.468;2023-01-30T07:58:20;15.33;;;9.40;;
8604;SDS011;4340;52.516;13.468;2023-01-30T08:00:47;15.50;;;9.17;;
8604;SDS011;4340;52.516;13.468;2023-01-30T08:03:14;13.90;;;9.87;;
8604;SDS011;4340;52.516;13.468;2023-01-30T08:05:41;17.37;;;9.97;;
8604;SDS011;4340;52.516;13.468;2023-01-30T08:08:10;13.27;;;9.20;;
8604;SDS011;4340;52.516;13.468;2023-01-30T08:10:38;12.43;;;8.60;;
8604;SDS011;4340;52.516;13.468;2023-01-30T08:13:05;12.27;;;8.00;;
8604;SDS011;4340;52.516;13.468;2023-01-30T08:15:31;12.00;;;7.47;;
8604;SDS011;4340;52.516;13.468;2023-01-30T08:17:58;12.50;;;8.00;;
8604;SDS011;4340;52.516;13.468;2023-01-30T08:20:25;11.53;;;8.07;;
8604;SDS011;4340;52.516;13.468;2023-01-30T08:22:52;12.67;;;8.67;;
8604;SDS011;4340;52.516;13.468;2023-01-30T08:25:19;12.00;;;7.60;;
8604;SDS011;4340;52.516;13.468;2023-01-30T08:27:48;12.50;;;8.53;;
8604;SDS011;4340;52.516;13.468;2023-01-30T08:30:14;11.30;;;7.70;;
8604;SDS011;4340;52.516;13.468;2023-01-30T08:32:42;11.37;;;7.70;;
8604;SDS011;4340;52.516;13.468;2023-01-30T08:35:08;14.43;;;8.43;;
8604;SDS011;4340;52.516;13.468;2023-01-30T08:37:35;13.40;;;9.70;;
8604;SDS011;4340;52.516;13.468;2023-01-30T08:40:04;11.60;;;8.23;;
8604;SDS011;4340;52.516;13.468;2023-01-30T08:42:31;10.80;;;7.70;;
8604;SDS011;4340;52.516;13.468;2023-01-30T08:44:59;11.60;;;8.70;;
8604;SDS011;4340;52.516;13.468;2023-01-30T08:47:26;8.47;;;6.70;;
8604;SDS011;4340;52.516;13.468;2023-01-30T08:49:52;13.20;;;8.17;;
8604;SDS011;4340;52.516;13.468;2023-01-30T08:52:19;7.73;;;6.70;;
8604;SDS011;4340;52.516;13.468;2023-01-30T08:54:46;14.03;;;9.13;;
8604;SDS011;4340;52.516;13.468;2023-01-30T08:57:12;14.33;;;9.97;;
8604;SDS011;4340;52.516;13.468;2023-01-30T08:59:40;9.63;;;6.07;;
8604;SDS011;4340;52.516;13.468;2023-01-30T09:02:09;12.40;;;7.03;;
8604;SDS011;4340;52.516;13.468;2023-01-30T09:04:36;6.93;;;4.83;;
8604;SDS011;4340;52.516;13.468;2023-01-30T09:07:02;8.10;;;6.63;;
8604;SDS011;4340;52.516;13.468;2023-01-30T09:09:29;7.43;;;4.60;;
8604;SDS011;4340;52.516;13.468;2023-01-30T09:11:56;5.50;;;4.70;;
8604;SDS011;4340;52.516;13.468;2023-01-30T09:14:22;6.63;;;5.60;;
8604;SDS011;4340;52.516;13.468;2023-01-30T09:16:49;6.23;;;5.23;;
8604;SDS011;4340;52.516;13.468;2023-01-30T09:19:20;7.00;;;5.00;;
8604;SDS011;4340;52.516;13.468;2023-01-30T09:21:47;8.00;;;5.27;;
8604;SDS011;4340;52.516;13.468;2023-01-30T09:24:14;6.40;;;4.87;;
8604;SDS011;4340;52.516;13.468;2023-01-30T09:26:40;6.53;;;5.73;;
8604;SDS011;4340;52.516;13.468;2023-01-30T09:29:09;4.73;;;4.30;;
8604;SDS011;4340;52.516;13.468;2023-01-30T09:31:35;8.63;;;5.70;;
8604;SDS011;4340;52.516;13.468;2023-01-30T09:34:02;4.70;;;4.30;;
8604;SDS011;4340;52.516;13.468;2023-01-30T09:36:30;7.93;;;4.70;;
8604;SDS011;4340;52.516;13.468;2023-01-30T09:38:57;4.40;;;4.00;;
8604;SDS011;4340;52.516;13.468;2023-01-30T09:41:33;136.33;;;69.40;;
8604;SDS011;4340;52.516;13.468;2023-01-30T09:44:20;10.80;;;4.60;;
8604;SDS011;4340;52.516;13.468;2023-01-30T09:47:09;6.57;;;3.73;;
8604;SDS011;4340;52.516;13.468;2023-01-30T09:49:39;10.13;;;4.60;;
8604;SDS011;4340;52.516;13.468;2023-01-30T09:52:29;6.10;;;3.60;;
8604;SDS011;4340;52.516;13.468;2023-01-30T09:55:02;3.77;;;3.00;;
8604;SDS011;4340;52.516;13.468;2023-01-30T09:57:41;8.67;;;3.53;;
8604;SDS011;4340;52.516;13.468;2023-01-30T10:00:10;8.40;;;5.30;;
8604;SDS011;4340;52.516;13.468;2023-01-30T10:02:44;4.77;;;3.20;;
8604;SDS011;4340;52.516;13.468;2023-01-30T10:05:16;2.80;;;2.60;;
8604;SDS011;4340;52.516;13.468;2023-01-30T10:07:48;6.67;;;2.67;;
8604;SDS011;4340;52.516;13.468;2023-01-30T10:10:28;4.20;;;2.67;;
8604;SDS011;4340;52.516;13.468;2023-01-30T10:13:08;7.33;;;2.60;;
8604;SDS011;4340;52.516;13.468;2023-01-30T10:15:51;4.90;;;2.80;;
8604;SDS011;4340;52.516;13.468;2023-01-30T10:18:29;5.17;;;2.57;;
8604;SDS011;4340;52.516;13.468;2023-01-30T10:21:06;9.00;;;3.20;;
8604;SDS011;4340;52.516;13.468;2023-01-30T10:23:49;6.27;;;2.20;;
8604;SDS011;4340;52.516;13.468;2023-01-30T10:26:26;6.40;;;2.30;;
8604;SDS011;4340;52.516;13.468;2023-01-30T10:28:55;4.47;;;2.50;;
8604;SDS011;4340;52.516;13.468;2023-01-30T10:31:27;5.10;;;2.07;;
8604;SDS011;4340;52.516;13.468;2023-01-30T10:33:59;13.63;;;2.73;;
8604;SDS011;4340;52.516;13.468;2023-01-30T10:36:31;7.90;;;3.57;;
8604;SDS011;4340;52.516;13.468;2023-01-30T10:39:03;6.73;;;2.17;;
8604;SDS011;4340;52.516;13.468;2023-01-30T10:41:41;9.10;;;2.43;;
8604;SDS011;4340;52.516;13.468;2023-01-30T10:44:19;12.70;;;2.13;;
8604;SDS011;4340;52.516;13.468;2023-01-30T10:46:57;8.20;;;2.13;;
8604;SDS011;4340;52.516;13.468;2023-01-30T10:49:44;8.80;;;2.60;;
8604;SDS011;4340;52.516;13.468;2023-01-30T10:52:19;11.13;;;2.00;;
8604;SDS011;4340;52.516;13.468;2023-01-30T10:54:56;10.63;;;2.87;;
8604;SDS011;4340;52.516;13.468;2023-01-30T10:57:34;7.70;;;2.17;;
8604;SDS011;4340;52.516;13.468;2023-01-30T11:00:11;11.97;;;2.10;;
8604;SDS011;4340;52.516;13.468;2023-01-30T11:02:46;9.27;;;2.37;;
8604;SDS011;4340;52.516;13.468;2023-01-30T11:05:23;16.27;;;2.70;;
8604;SDS011;4340;52.516;13.468;2023-01-30T11:07:52;9.70;;;2.20;;
8604;SDS011;4340;52.516;13.468;2023-01-30T11:10:20;9.63;;;2.27;;
8604;SDS011;4340;52.516;13.468;2023-01-30T11:12:51;7.97;;;2.30;;
8604;SDS011;4340;52.516;13.468;2023-01-30T11:15:19;11.40;;;2.60;;
8604;SDS011;4340;52.516;13.468;2023-01-30T11:17:48;11.40;;;2.57;;
8604;SDS011;4340;52.516;13.468;2023-01-30T11:20:16;15.67;;;3.13;;
8604;SDS011;4340;52.516;13.468;2023-01-30T11:22:46;12.60;;;3.10;;
8604;SDS011;4340;52.516;13.468;2023-01-30T11:25:15;5.37;;;2.57;;
8604;SDS011;4340;52.516;13.468;2023-01-30T11:27:51;11.10;;;2.53;;
8604;SDS011;4340;52.516;13.468;2023-01-30T11:30:20;9.53;;;2.47;;
8604;SDS011;4340;52.516;13.468;2023-01-30T11:32:52;9.90;;;2.50;;
8604;SDS011;4340;52.516;13.468;2023-01-30T11:35:32;5.40;;;2.37;;
8604;SDS011;4340;52.516;13.468;2023-01-30T11:38:16;14.37;;;2.70;;
8604;SDS011;4340;52.516;13.468;2023-01-30T11:40:47;10.63;;;2.43;;
8604;SDS011;4340;52.516;13.468;2023-01-30T11:43:15;8.40;;;2.27;;
8604;SDS011;4340;52.516;13.468;2023-01-30T11:45:43;13.50;;;3.10;;
8604;SDS011;4340;52.516;13.468;2023-01-30T11:48:13;10.17;;;2.33;;
8604;SDS011;4340;52.516;13.468;2023-01-30T11:50:44;10.67;;;2.83;;
8604;SDS011;4340;52.516;13.468;2023-01-30T11:53:15;10.73;;;2.67;;
8604;SDS011;4340;52.516;13.468;2023-01-30T11:55:48;8.30;;;2.20;;
8604;SDS011;4340;52.516;13.468;2023-01-30T11:58:16;12.00;;;3.70;;
8604;SDS011;4340;52.516;13.468;2023-01-30T12:00:45;7.50;;;2.10;;
8604;SDS011;4340;52.516;13.468;2023-01-30T12:03:13;5.33;;;2.00;;
8604;SDS011;4340;52.516;13.468;2023-01-30T12:05:43;6.00;;;2.10;;
8604;SDS011;4340;52.516;13.468;2023-01-30T12:08:12;5.17;;;1.93;;
8604;SDS011;4340;52.516;13.468;2023-01-30T12:10:49;5.10;;;1.63;;
8604;SDS011;4340;52.516;13.468;2023-01-30T12:13:20;5.70;;;2.50;;
8604;SDS011;4340;52.516;13.468;2023-01-30T12:15:52;6.50;;;1.87;;
8604;SDS011;4340;52.516;13.468;2023-01-30T12:18:24;4.80;;;1.83;;
8604;SDS011;4340;52.516;13.468;2023-01-30T12:20:57;7.83;;;1.97;;
8604;SDS011;4340;52.516;13.468;2023-01-30T12:23:26;13.23;;;4.13;;
8604;SDS011;4340;52.516;13.468;2023-01-30T12:26:03;6.77;;;2.23;;
8604;SDS011;4340;52.516;13.468;2023-01-30T12:28:38;9.83;;;2.90;;
8604;SDS011;4340;52.516;13.468;2023-01-30T12:31:09;13.77;;;2.70;;
8604;SDS011;4340;52.516;13.468;2023-01-30T12:33:39;6.33;;;1.90;;
8604;SDS011;4340;52.516;13.468;2023-01-30T12:36:08;7.20;;;2.60;;
8604;SDS011;4340;52.516;13.468;2023-01-30T12:38:48;8.07;;;2.60;;
8604;SDS011;4340;52.516;13.468;2023-01-30T12:41:28;8.20;;;2.43;;
8604;SDS011;4340;52.516;13.468;2023-01-30T12:44:16;18.73;;;3.30;;
8604;SDS011;4340;52.516;13.468;2023-01-30T12:47:06;10.00;;;3.10;;
8604;SDS011;4340;52.516;13.468;2023-01-30T12:49:49;12.63;;;2.80;;
8604;SDS011;4340;52.516;13.468;2023-01-30T12:52:47;9.00;;;2.40;;
8604;SDS011;4340;52.516;13.468;2023-01-30T12:55:23;9.30;;;2.90;;
8604;SDS011;4340;52.516;13.468;2023-01-30T12:57:59;10.20;;;2.40;;
8604;SDS011;4340;52.516;13.468;2023-01-30T13:00:32;11.53;;;2.17;;
8604;SDS011;4340;52.516;13.468;2023-01-30T13:03:13;11.47;;;3.23;;
8604;SDS011;4340;52.516;13.468;2023-01-30T13:05:50;8.03;;;2.30;;
8604;SDS011;4340;52.516;13.468;2023-01-30T13:08:35;8.90;;;2.43;;
8604;SDS011;4340;52.516;13.468;2023-01-30T13:11:10;13.93;;;2.53;;
8604;SDS011;4340;52.516;13.468;2023-01-30T13:13:45;11.40;;;2.50;;
8604;SDS011;4340;52.516;13.468;2023-01-30T13:16:21;11.47;;;2.90;;
8604;SDS011;4340;52.516;13.468;2023-01-30T13:18:56;10.07;;;2.67;;
8604;SDS011;4340;52.516;13.468;2023-01-30T13:21:30;9.03;;;2.40;;
8604;SDS011;4340;52.516;13.468;2023-01-30T13:24:09;9.87;;;1.90;;
8604;SDS011;4340;52.516;13.468;2023-01-30T13:26:43;8.43;;;2.00;;
8604;SDS011;4340;52.516;13.468;2023-01-30T13:29:12;7.60;;;2.10;;
8604;SDS011;4340;52.516;13.468;2023-01-30T13:31:46;8.80;;;1.93;;
8604;SDS011;4340;52.516;13.468;2023-01-30T13:34:19;8.20;;;2.23;;
8604;SDS011;4340;52.516;13.468;2023-01-30T13:36:52;5.50;;;1.70;;
8604;SDS011;4340;52.516;13.468;2023-01-30T13:39:23;9.53;;;2.10;;
8604;SDS011;4340;52.516;13.468;2023-01-30T13:41:58;6.57;;;1.73;;
8604;SDS011;4340;52.516;13.468;2023-01-30T13:44:28;13.43;;;1.50;;
8604;SDS011;4340;52.516;13.468;2023-01-30T13:46:58;4.77;;;2.13;;
8604;SDS011;4340;52.516;13.468;2023-01-30T13:49:37;10.60;;;2.10;;
8604;SDS011;4340;52.516;13.468;2023-01-30T13:52:08;9.90;;;2.50;;
8604;SDS011;4340;52.516;13.468;2023-01-30T13:54:45;12.07;;;2.67;;
8604;SDS011;4340;52.516;13.468;2023-01-30T13:57:24;12.00;;;2.50;;
8604;SDS011;4340;52.516;13.468;2023-01-30T14:00:05;9.87;;;2.63;;
8604;SDS011;4340;52.516;13.468;2023-01-30T14:06:02;9.73;;;2.33;;
8604;SDS011;4340;52.516;13.468;2023-01-30T14:08:34;7.73;;;1.70;;
8604;SDS011;4340;52.516;13.468;2023-01-30T14:11:16;13.10;;;2.10;;
8604;SDS011;4340;52.516;13.468;2023-01-30T14:13:56;7.33;;;2.13;;
8604;SDS011;4340;52.516;13.468;2023-01-30T14:16:38;4.23;;;2.43;;
8604;SDS011;4340;52.516;13.468;2023-01-30T14:22:00;5.00;;;1.80;;
8604;SDS011;4340;52.516;13.468;2023-01-30T14:24:30;9.63;;;3.37;;
8604;SDS011;4340;52.516;13.468;2023-01-30T14:27:01;5.50;;;2.00;;
8604;SDS011;4340;52.516;13.468;2023-01-30T14:32:34;6.53;;;2.10;;
8604;SDS011;4340;52.516;13.468;2023-01-30T14:35:22;11.37;;;2.07;;
8604;SDS011;4340;52.516;13.468;2023-01-30T14:40:48;5.70;;;1.77;;
8604;SDS011;4340;52.516;13.468;2023-01-30T14:43:34;2.80;;;1.40;;
8604;SDS011;4340;52.516;13.468;2023-01-30T14:46:02;3.20;;;1.60;;
8604;SDS011;4340;52.516;13.468;2023-01-30T14:48:31;4.70;;;1.27;;
8604;SDS011;4340;52.516;13.468;2023-01-30T14:51:12;5.00;;;1.17;;
8604;SDS011;4340;52.516;13.468;2023-01-30T14:53:48;1.97;;;1.40;;
8604;SDS011;4340;52.516;13.468;2023-01-30T14:56:34;1.63;;;1.00;;
8604;SDS011;4340;52.516;13.468;2023-01-30T14:59:07;2.20;;;1.00;;
8604;SDS011;4340;52.516;13.468;2023-01-30T15:02:00;4.57;;;1.30;;
8604;SDS011;4340;52.516;13.468;2023-01-30T15:04:31;2.20;;;1.00;;
8604;SDS011;4340;52.516;13.468;2023-01-30T15:07:07;3.20;;;2.10;;
8604;SDS011;4340;52.516;13.468;2023-01-30T15:09:37;2.90;;;1.63;;
8604;SDS011;4340;52.516;13.468;2023-01-30T15:12:16;2.87;;;1.20;;
8604;SDS011;4340;52.516;13.468;2023-01-30T15:15:09;2.63;;;1.87;;
8604;SDS011;4340;52.516;13.468;2023-01-30T15:17:45;2.87;;;2.10;;
8604;SDS011;4340;52.516;13.468;2023-01-30T15:20:27;2.80;;;1.67;;
8604;SDS011;4340;52.516;13.468;2023-01-30T15:23:12;4.63;;;1.97;;